This is the latest recevied weather packets stored in our database for station/object KD9YTS-13. If no packets are shown the sender has not sent any weather packets the latest 10 day(s).
| Time | Temp. | Humidity | Pressure | Rain* | Wind** | Luminosity | Snow |
|---|---|---|---|---|---|---|---|
| 1777654583 | 6.11° C | 3% | - | 0 mm | - | - | - |
| 1777653383 | -17.78° C | 100% | - | 0 mm | - | - | - |
| 1777650983 | -17.78° C | 100% | - | 0 mm | - | - | - |
| 1777649783 | 4.44° C | 4% | - | 0 mm | - | - | - |
| 1777647383 | -17.78° C | 100% | - | 0 mm | - | - | - |
| 1777646183 | -17.78° C | 100% | - | 0 mm | - | - | - |
| 1777643783 | 5.56° C | 5% | - | 0 mm | - | - | - |
| 1777642584 | 5° C | 6% | - | 0 mm | - | - | - |
| 1777641383 | -17.78° C | 100% | - | 0 mm | - | - | - |
| 1777640183 | -17.78° C | 100% | - | 0 mm | - | - | - |
| 1777638983 | -17.78° C | 100% | - | 0 mm | - | - | - |
| 1777637783 | 0° C | 8% | - | 0 mm | - | - | - |
| 1777636582 | -17.78° C | 100% | - | 0 mm | - | - | - |
| 1777635383 | -17.78° C | 100% | - | 0 mm | - | - | - |
| 1777632983 | -1.67° C | 8% | - | 0 mm | - | - | - |
| 1777631783 | -1.67° C | 8% | - | 0 mm | - | - | - |
| 1777629383 | -17.78° C | 100% | - | 0 mm | - | - | - |
| 1777628183 | -17.78° C | 100% | - | 0 mm | - | - | - |
| 1777626986 | -2.22° C | 8% | - | 0 mm | - | - | - |
| 1777625783 | -1.67° C | 8% | - | 0 mm | - | - | - |
| 1777624583 | -17.78° C | 100% | - | 0 mm | - | - | - |
| 1777622183 | -17.78° C | 100% | - | 0 mm | - | - | - |
| 1777620983 | -0.56° C | 8% | - | 0 mm | - | - | - |
| 1777618583 | -17.78° C | 100% | - | 0 mm | - | - | - |
| 1777617383 | -17.78° C | 100% | - | 0 mm | - | - | - |
* Rain latest hour (hover to see other rain measurements)
** Current wind speed in m/s (hover to see current wind gust speed)